createdAt,value
2022-09-20T00:04:01.470Z,0.28
2022-09-20T00:09:03.628Z,0.30
2022-09-20T00:14:03.089Z,0.22
2022-09-20T00:19:05.515Z,0.30
2022-09-20T00:24:04.786Z,0.47
2022-09-20T00:29:04.663Z,0.30
2022-09-20T00:34:23.910Z,0.30
2022-09-20T00:39:22.885Z,0.77
2022-09-20T00:44:44.595Z,0.50
2022-09-20T00:49:43.177Z,0.38
2022-09-20T00:54:41.700Z,0.60
2022-09-20T00:59:44.762Z,0.30
2022-09-20T01:04:44.441Z,0.40
2022-09-20T01:09:46.231Z,0.40
2022-09-20T01:14:48.885Z,0.50
2022-09-20T01:19:47.623Z,0.40
2022-09-20T01:25:05.213Z,0.60
2022-09-20T01:30:10.225Z,0.40
2022-09-20T01:35:11.865Z,0.50
2022-09-20T01:40:32.161Z,0.43
2022-09-20T01:45:35.375Z,0.60
2022-09-20T01:50:42.309Z,0.70
2022-09-20T01:55:44.525Z,1.15
2022-09-20T02:00:56.162Z,0.88
2022-09-20T02:06:17.373Z,1.25
2022-09-20T02:11:19.671Z,1.20
2022-09-20T02:16:26.025Z,0.93
2022-09-20T02:21:46.390Z,1.10
2022-09-20T02:27:22.793Z,1.10
2022-09-20T02:32:54.424Z,1.25
2022-09-20T02:38:34.459Z,1.48
2022-09-20T02:43:39.044Z,1.45
2022-09-20T02:48:48.904Z,1.60
2022-09-20T02:54:14.130Z,1.70
2022-09-20T02:59:33.928Z,1.83
2022-09-20T03:04:58.300Z,1.75
2022-09-20T03:15:35.115Z,2.08
2022-09-20T03:20:34.939Z,2.10
2022-09-20T03:25:57.030Z,2.20
2022-09-20T03:31:30.254Z,2.22
2022-09-20T03:36:44.555Z,2.00
2022-09-20T03:42:44.574Z,2.03
2022-09-20T03:48:31.501Z,2.13
2022-09-20T03:54:03.539Z,2.78
2022-09-20T03:59:14.966Z,2.38
2022-09-20T04:04:36.790Z,2.33
2022-09-20T04:09:42.205Z,2.00
2022-09-20T04:15:21.155Z,2.00
2022-09-20T04:20:40.905Z,3.00
2022-09-20T04:25:45.813Z,2.65
2022-09-20T04:30:44.457Z,2.17
2022-09-20T04:36:35.627Z,1.98
2022-09-20T04:41:53.827Z,2.05
2022-09-20T04:47:15.997Z,2.50
2022-09-20T04:52:39.878Z,2.53
2022-09-20T04:58:15.812Z,2.30
2022-09-20T05:03:38.954Z,2.45
2022-09-20T05:08:58.888Z,2.10
2022-09-20T05:14:14.597Z,2.13
2022-09-20T05:19:37.528Z,2.30
2022-09-20T05:25:02.411Z,2.40
2022-09-20T05:30:27.322Z,2.60
2022-09-20T05:35:54.839Z,2.67
2022-09-20T05:41:32.909Z,2.50
2022-09-20T05:46:41.076Z,2.88
2022-09-20T05:52:03.312Z,2.40
2022-09-20T05:57:20.699Z,2.67
2022-09-20T06:02:52.422Z,2.22
2022-09-20T06:08:19.413Z,2.08
2022-09-20T06:13:40.106Z,2.35
2022-09-20T06:18:49.499Z,1.77
2022-09-20T06:23:55.227Z,2.10
2022-09-20T06:28:58.522Z,1.73
2022-09-20T06:34:29.633Z,1.52
2022-09-20T06:40:14.563Z,1.33
2022-09-20T06:45:15.065Z,1.15
2022-09-20T06:50:16.534Z,2.08
2022-09-20T06:55:29.702Z,1.58
2022-09-20T07:00:28.893Z,1.50
2022-09-20T07:05:30.594Z,1.80
2022-09-20T07:10:29.285Z,1.23
2022-09-20T07:15:30.952Z,2.10
2022-09-20T07:20:33.742Z,1.20
2022-09-20T07:25:32.570Z,1.40
2022-09-20T07:30:33.420Z,1.88
2022-09-20T07:35:36.488Z,1.60
2022-09-20T07:40:34.939Z,1.90
2022-09-20T07:45:38.846Z,1.50
2022-09-20T07:50:36.897Z,1.42
2022-09-20T07:55:38.069Z,1.55
2022-09-20T08:00:40.178Z,2.17
2022-09-20T08:05:41.203Z,1.70
2022-09-20T08:10:42.513Z,2.83
2022-09-20T08:15:42.253Z,1.77
2022-09-20T08:20:42.337Z,1.63
2022-09-20T08:25:41.337Z,1.23
2022-09-20T08:30:39.753Z,1.48
2022-09-20T08:35:40.304Z,1.20
2022-09-20T08:40:39.555Z,1.02
2022-09-20T08:45:38.907Z,0.68
2022-09-20T08:50:40.875Z,1.27
2022-09-20T08:55:43.816Z,0.95
2022-09-20T09:00:47.358Z,1.02
2022-09-20T09:05:55.340Z,1.15
2022-09-20T09:11:10.408Z,0.60
2022-09-20T09:16:15.404Z,0.82
2022-09-20T09:21:26.023Z,0.60
2022-09-20T09:26:25.316Z,0.93
2022-09-20T09:31:26.370Z,0.98
2022-09-20T09:36:29.422Z,0.68
2022-09-20T09:41:36.050Z,0.70
2022-09-20T09:46:35.501Z,0.50
2022-09-20T09:51:34.275Z,0.60
2022-09-20T09:56:52.256Z,0.40
2022-09-20T10:02:14.357Z,0.60
2022-09-20T10:07:28.420Z,0.45
2022-09-20T10:17:47.384Z,0.60
2022-09-20T10:23:34.439Z,0.77
2022-09-20T10:28:49.526Z,0.60
2022-09-20T10:34:02.874Z,0.40
2022-09-20T10:39:13.037Z,0.40
2022-09-20T10:44:18.521Z,0.38
2022-09-20T10:49:35.299Z,0.38
2022-09-20T10:55:08.985Z,0.60
2022-09-20T11:00:29.699Z,0.35
2022-09-20T11:05:47.138Z,0.45
2022-09-20T11:10:50.692Z,0.32
2022-09-20T11:16:14.710Z,0.20
2022-09-20T11:21:39.009Z,0.20
2022-09-20T11:26:56.127Z,0.40
2022-09-20T11:32:04.480Z,0.28
2022-09-20T11:37:03.819Z,0.30
2022-09-20T11:42:05.068Z,0.30
2022-09-20T11:47:36.664Z,0.30
2022-09-20T11:52:41.409Z,0.20
2022-09-20T11:57:41.585Z,0.10
2022-09-20T12:02:50.260Z,0.30
2022-09-20T12:07:53.717Z,0.20
2022-09-20T12:13:18.501Z,0.30
2022-09-20T12:18:35.882Z,0.20
2022-09-20T12:23:43.130Z,0.20
2022-09-20T12:28:43.373Z,0.30
2022-09-20T12:34:06.987Z,0.30
2022-09-20T12:39:11.319Z,0.28
2022-09-20T12:44:50.691Z,0.30
2022-09-20T12:50:11.753Z,0.40
2022-09-20T12:55:12.120Z,0.20
2022-09-20T13:00:41.416Z,0.20
2022-09-20T13:05:46.084Z,0.38
2022-09-20T13:10:51.564Z,0.20
2022-09-20T13:15:54.511Z,0.20
2022-09-20T13:20:56.097Z,0.30
2022-09-20T13:25:57.751Z,0.15
2022-09-20T13:31:21.668Z,0.40
2022-09-20T13:41:20.998Z,0.40
2022-09-20T13:46:24.962Z,0.40
2022-09-20T13:51:31.595Z,0.30
2022-09-20T13:56:32.927Z,0.22
2022-09-20T14:01:32.659Z,0.20
2022-09-20T14:06:34.635Z,0.50
2022-09-20T14:11:35.761Z,0.30
2022-09-20T14:16:39.249Z,0.28
2022-09-20T14:21:38.476Z,2.28
2022-09-20T14:26:50.977Z,0.43
2022-09-20T14:31:54.206Z,0.20
2022-09-20T14:37:06.537Z,0.20
2022-09-20T14:42:36.761Z,0.30
2022-09-20T14:47:54.436Z,0.98
2022-09-20T14:53:06.494Z,0.10
2022-09-20T14:58:12.377Z,0.38
2022-09-20T15:03:12.915Z,0.57
2022-09-20T15:08:13.253Z,1.95
2022-09-20T15:13:16.852Z,0.77
2022-09-20T15:18:29.202Z,0.32
2022-09-20T15:23:32.028Z,0.47
2022-09-20T15:28:33.684Z,0.50
2022-09-20T15:33:34.272Z,0.50
2022-09-20T15:38:33.763Z,0.65
2022-09-20T15:43:36.404Z,0.75
2022-09-20T15:48:38.444Z,0.80
2022-09-20T15:53:48.964Z,1.10
2022-09-20T15:58:53.028Z,0.70
2022-09-20T16:03:53.710Z,0.90
2022-09-20T16:08:52.460Z,0.50
2022-09-20T16:13:57.725Z,0.68
2022-09-20T16:19:15.566Z,0.30
2022-09-20T16:24:13.915Z,0.20
2022-09-20T16:29:14.050Z,0.40
2022-09-20T16:34:18.804Z,0.50
2022-09-20T16:39:19.918Z,0.50
2022-09-20T16:44:18.888Z,0.73
2022-09-20T16:49:17.309Z,0.20
2022-09-20T16:54:16.460Z,0.60
2022-09-20T16:59:19.392Z,0.40
2022-09-20T17:04:21.364Z,4.95
2022-09-20T17:09:32.193Z,0.60
2022-09-20T17:14:34.392Z,0.50
2022-09-20T17:19:36.043Z,0.60
2022-09-20T17:24:37.075Z,0.60
2022-09-20T17:29:36.887Z,0.60
2022-09-20T17:34:41.374Z,0.70
2022-09-20T17:39:41.393Z,0.77
2022-09-20T17:44:43.990Z,0.70
2022-09-20T17:49:49.173Z,0.80
2022-09-20T17:54:46.947Z,0.50
2022-09-20T17:59:45.640Z,0.90
2022-09-20T18:04:44.913Z,0.60
2022-09-20T18:09:52.144Z,0.65
2022-09-20T18:14:52.293Z,0.52
2022-09-20T18:20:18.108Z,0.82
2022-09-20T18:25:16.776Z,0.60
2022-09-20T18:30:18.014Z,0.80
2022-09-20T18:35:18.630Z,0.70
2022-09-20T18:40:16.035Z,1.10
2022-09-20T18:45:17.800Z,0.90
2022-09-20T18:50:15.964Z,0.88
2022-09-20T18:55:14.911Z,0.50
2022-09-20T19:00:13.612Z,0.70
2022-09-20T19:05:18.494Z,0.60
2022-09-20T19:10:45.643Z,1.20
2022-09-20T19:16:08.959Z,1.00
2022-09-20T19:21:28.952Z,1.60
2022-09-20T19:26:30.964Z,3.55
2022-09-20T19:31:33.297Z,2.65
2022-09-20T19:36:36.524Z,2.72
2022-09-20T19:41:55.134Z,2.70
2022-09-20T19:47:07.862Z,1.77
2022-09-20T19:52:08.827Z,1.95
2022-09-20T19:57:12.664Z,2.22
2022-09-20T20:02:25.920Z,1.63
2022-09-20T20:07:47.733Z,1.65
2022-09-20T20:13:33.781Z,1.85
2022-09-20T20:18:54.674Z,1.77
2022-09-20T20:24:05.188Z,1.67
2022-09-20T20:29:04.954Z,1.67
2022-09-20T20:34:02.759Z,1.42
2022-09-20T20:39:02.753Z,1.70
2022-09-20T20:44:05.336Z,2.13
2022-09-20T20:49:05.778Z,1.80
2022-09-20T20:54:03.553Z,2.10
2022-09-20T20:59:04.541Z,2.20
2022-09-20T21:04:03.663Z,1.88
2022-09-20T21:09:02.193Z,1.80
2022-09-20T21:14:02.509Z,1.95
2022-09-20T21:19:02.262Z,1.88
2022-09-20T21:24:02.782Z,1.70
2022-09-20T21:29:16.458Z,1.90
2022-09-20T21:34:16.419Z,2.42
2022-09-20T21:39:14.689Z,1.50
2022-09-20T21:44:14.426Z,2.15
2022-09-20T21:49:17.565Z,1.52
2022-09-20T21:54:15.776Z,1.30
2022-09-20T21:59:16.164Z,1.70
2022-09-20T22:04:15.446Z,1.60
2022-09-20T22:09:15.950Z,1.70
2022-09-20T22:14:16.383Z,1.50
2022-09-20T22:19:17.546Z,1.50
2022-09-20T22:24:16.795Z,2.08
2022-09-20T22:29:15.838Z,1.80
2022-09-20T22:34:19.239Z,1.30
2022-09-20T22:39:18.211Z,1.05
2022-09-20T22:44:16.623Z,1.25
2022-09-20T22:49:17.303Z,1.10
2022-09-20T22:54:16.222Z,1.30
2022-09-20T22:59:15.146Z,1.13
2022-09-20T23:04:19.315Z,1.27
2022-09-20T23:09:18.921Z,1.58
2022-09-20T23:14:21.859Z,1.13
2022-09-20T23:19:21.893Z,1.00
2022-09-20T23:24:21.283Z,1.10
2022-09-20T23:29:22.706Z,0.77
2022-09-20T23:34:20.254Z,0.82
2022-09-20T23:39:23.255Z,1.40
2022-09-20T23:44:24.993Z,1.50
2022-09-20T23:49:27.695Z,1.05
2022-09-20T23:54:26.185Z,1.27
2022-09-20T23:59:25.103Z,0.70
